Terminal Aerodrome Forecast
Issued by NWS

Home | Current Version | Previous Version | Text Only | Print | Product List | Glossary On
Versions: 1 2 3 4 5 6 7 8 9 10 11 12 13 14 15 16 17 18
000
FTAK31 PAJN 182300
TAFAYA
TAF
PAYA 182326Z 1900/1924 08008KT P6SM SCT025 BKN080
     FM190700 09008KT P6SM VCSH BKN040 OVC080
     FM191800 09005KT P6SM BKN045 BKN070
     FM192200 09008KT P6SM BKN045 BKN070
      AMD LTD TO CLD VIS AND WIND 1901/1910=

USA.gov is the U.S. government's official web portal to all federal, state and local government web resources and services.